createdAt,value
2019-03-31T00:01:43.649Z,20.87
2019-03-31T00:04:12.282Z,20.03
2019-03-31T00:06:40.779Z,20.07
2019-03-31T00:09:09.370Z,19.77
2019-03-31T00:11:37.930Z,19.30
2019-03-31T00:14:06.454Z,18.47
2019-03-31T00:16:35.024Z,17.83
2019-03-31T00:19:03.666Z,18.37
2019-03-31T00:21:32.222Z,18.13
2019-03-31T00:24:00.835Z,17.67
2019-03-31T00:26:29.429Z,19.00
2019-03-31T00:28:57.946Z,19.33
2019-03-31T00:31:26.658Z,18.73
2019-03-31T00:33:55.257Z,18.97
2019-03-31T00:36:23.811Z,19.17
2019-03-31T00:38:52.430Z,18.83
2019-03-31T00:41:20.985Z,18.93
2019-03-31T00:43:49.502Z,20.03
2019-03-31T00:46:18.142Z,19.20
2019-03-31T00:48:46.666Z,19.07
2019-03-31T00:51:15.214Z,19.80
2019-03-31T00:53:43.736Z,19.17
2019-03-31T00:56:12.290Z,17.33
2019-03-31T00:58:40.894Z,16.50
2019-03-31T01:01:11.861Z,17.63
2019-03-31T01:03:40.730Z,17.83
2019-03-31T01:06:09.866Z,18.40
2019-03-31T01:08:38.512Z,18.37
2019-03-31T01:11:10.418Z,18.50
2019-03-31T01:13:39.382Z,16.93
2019-03-31T01:16:08.115Z,17.10
2019-03-31T01:18:36.930Z,17.23
2019-03-31T01:21:05.486Z,16.70
2019-03-31T01:23:34.170Z,17.37
2019-03-31T01:26:03.088Z,17.60
2019-03-31T01:28:31.945Z,17.57
2019-03-31T01:31:00.570Z,18.43
2019-03-31T01:33:29.546Z,18.23
2019-03-31T01:35:58.101Z,18.17
2019-03-31T01:38:26.718Z,18.80
2019-03-31T01:40:55.486Z,17.47
2019-03-31T01:43:24.086Z,18.10
2019-03-31T01:45:52.953Z,18.17
2019-03-31T01:48:21.558Z,17.03
2019-03-31T01:50:50.191Z,16.70
2019-03-31T01:53:18.792Z,16.43
2019-03-31T01:55:47.366Z,15.90
2019-03-31T01:58:15.957Z,16.97
2019-03-31T02:00:55.170Z,17.00
2019-03-31T02:03:23.919Z,16.63
2019-03-31T02:05:52.405Z,16.30
2019-03-31T02:08:21.065Z,16.00
2019-03-31T02:10:49.686Z,15.87
2019-03-31T02:13:18.200Z,17.00
2019-03-31T02:15:46.759Z,16.10
2019-03-31T02:18:15.338Z,15.63
2019-03-31T02:20:43.872Z,16.33
2019-03-31T02:23:12.538Z,16.10
2019-03-31T02:25:41.082Z,16.80
2019-03-31T02:28:09.594Z,18.00
2019-03-31T02:30:38.151Z,17.43
2019-03-31T02:33:06.811Z,17.57
2019-03-31T02:35:35.370Z,17.53
2019-03-31T02:38:04.034Z,18.07
2019-03-31T02:40:32.663Z,18.17
2019-03-31T02:43:01.339Z,17.73
2019-03-31T02:45:30.057Z,18.37
2019-03-31T02:47:58.618Z,17.93
2019-03-31T02:50:36.243Z,18.20
2019-03-31T02:53:05.001Z,17.77
2019-03-31T02:55:33.899Z,18.00
2019-03-31T02:58:02.583Z,17.33
2019-03-31T03:00:31.712Z,17.97
2019-03-31T03:03:01.821Z,18.07
2019-03-31T03:05:32.412Z,18.50
2019-03-31T03:08:01.835Z,17.83
2019-03-31T03:10:32.905Z,18.73
2019-03-31T03:13:03.179Z,18.30
2019-03-31T03:15:34.931Z,18.40
2019-03-31T03:18:03.563Z,19.13
2019-03-31T03:20:32.149Z,19.33
2019-03-31T03:23:00.713Z,19.40
2019-03-31T03:25:29.367Z,19.07
2019-03-31T03:27:57.927Z,18.87
2019-03-31T03:30:26.583Z,19.17
2019-03-31T03:33:13.455Z,18.83
2019-03-31T03:35:25.415Z,19.33
2019-03-31T03:37:53.985Z,20.23
2019-03-31T03:40:22.575Z,20.37
2019-03-31T03:42:51.132Z,20.10
2019-03-31T03:45:19.718Z,20.63
2019-03-31T03:47:48.275Z,19.83
2019-03-31T03:50:16.858Z,20.50
2019-03-31T03:52:45.348Z,20.67
2019-03-31T03:55:13.927Z,21.30
2019-03-31T03:57:42.487Z,21.87
2019-03-31T04:00:11.403Z,21.77
2019-03-31T04:02:39.967Z,22.30
2019-03-31T04:05:08.626Z,21.63
2019-03-31T04:07:37.116Z,21.20
2019-03-31T04:10:08.894Z,21.57
2019-03-31T04:12:37.458Z,21.60
2019-03-31T04:15:06.119Z,19.53
2019-03-31T04:17:34.673Z,19.33
2019-03-31T04:20:03.752Z,20.10
2019-03-31T04:22:32.317Z,19.77
2019-03-31T04:25:00.899Z,20.03
2019-03-31T04:27:29.560Z,20.90
2019-03-31T04:29:58.143Z,20.67
2019-03-31T04:32:26.708Z,20.67
2019-03-31T04:34:55.312Z,21.90
2019-03-31T04:37:23.870Z,21.10
2019-03-31T04:39:52.429Z,20.90
2019-03-31T04:42:21.084Z,20.67
2019-03-31T04:44:49.643Z,22.80
2019-03-31T04:47:18.231Z,22.63
2019-03-31T04:49:46.797Z,21.60
2019-03-31T04:52:15.390Z,21.57
2019-03-31T04:54:43.870Z,22.17
2019-03-31T04:57:12.382Z,21.53
2019-03-31T04:59:40.940Z,21.93
2019-03-31T05:02:09.542Z,21.63
2019-03-31T05:04:38.030Z,21.87
2019-03-31T05:07:06.580Z,21.70
2019-03-31T05:09:35.094Z,22.00
2019-03-31T05:12:03.635Z,21.73
2019-03-31T05:14:32.152Z,21.73
2019-03-31T05:17:00.708Z,21.63
2019-03-31T05:19:29.318Z,22.00
2019-03-31T05:21:57.892Z,21.53
2019-03-31T05:24:26.458Z,21.07
2019-03-31T05:26:55.044Z,20.67
2019-03-31T05:29:23.612Z,21.63
2019-03-31T05:31:52.338Z,20.73
2019-03-31T05:34:20.964Z,21.27
2019-03-31T05:36:49.542Z,20.07
2019-03-31T05:39:18.138Z,18.60
2019-03-31T05:41:46.848Z,19.67
2019-03-31T05:44:15.411Z,19.10
2019-03-31T05:46:43.938Z,18.80
2019-03-31T05:49:12.559Z,20.57
2019-03-31T05:51:41.154Z,20.37
2019-03-31T05:54:09.712Z,19.57
2019-03-31T05:56:38.367Z,18.87
2019-03-31T05:59:06.850Z,20.17
2019-03-31T06:01:35.450Z,21.50
2019-03-31T06:04:04.186Z,21.57
2019-03-31T06:06:32.674Z,22.93
2019-03-31T06:09:01.262Z,22.20
2019-03-31T06:11:29.742Z,23.43
2019-03-31T06:13:58.378Z,23.60
2019-03-31T06:16:26.997Z,23.13
2019-03-31T06:18:55.581Z,23.30
2019-03-31T06:21:24.463Z,22.77
2019-03-31T06:23:53.062Z,23.47
2019-03-31T06:26:21.628Z,21.47
2019-03-31T06:28:50.209Z,22.83
2019-03-31T06:31:18.809Z,22.83
2019-03-31T06:33:47.320Z,22.77
2019-03-31T06:36:15.882Z,23.33
2019-03-31T06:38:44.471Z,23.00
2019-03-31T06:41:13.030Z,22.30
2019-03-31T06:43:41.555Z,22.33
2019-03-31T06:46:10.099Z,22.63
2019-03-31T06:48:38.623Z,22.90
2019-03-31T06:51:07.183Z,21.87
2019-03-31T06:53:35.778Z,21.77
2019-03-31T06:56:04.330Z,23.37
2019-03-31T06:58:32.919Z,22.67
2019-03-31T07:01:01.571Z,23.07
2019-03-31T07:03:30.162Z,22.77
2019-03-31T07:05:58.730Z,22.93
2019-03-31T07:08:27.329Z,21.93
2019-03-31T07:10:55.818Z,22.47
2019-03-31T07:13:24.447Z,22.00
2019-03-31T07:15:53.092Z,21.67
2019-03-31T07:18:21.612Z,21.60
2019-03-31T07:20:50.728Z,22.40
2019-03-31T07:23:19.304Z,21.50
2019-03-31T07:25:47.803Z,23.17
2019-03-31T07:28:16.450Z,22.40
2019-03-31T07:30:45.110Z,22.17
2019-03-31T07:33:13.666Z,22.33
2019-03-31T07:35:42.187Z,22.33
2019-03-31T07:38:10.793Z,21.70
2019-03-31T07:40:39.598Z,22.07
2019-03-31T07:43:08.323Z,21.53
2019-03-31T07:45:36.909Z,23.03
2019-03-31T07:48:08.114Z,23.80
2019-03-31T07:50:35.698Z,22.97
2019-03-31T07:53:04.323Z,23.57
2019-03-31T07:55:32.835Z,24.23
2019-03-31T07:58:01.447Z,23.80
2019-03-31T08:00:29.983Z,24.30
2019-03-31T08:03:00.246Z,24.20
2019-03-31T08:05:33.243Z,24.17
2019-03-31T08:07:58.990Z,25.07
2019-03-31T08:10:27.494Z,26.27
2019-03-31T08:12:55.983Z,25.67
2019-03-31T08:15:24.570Z,25.87
2019-03-31T08:17:53.196Z,26.47
2019-03-31T08:20:22.032Z,25.87
2019-03-31T08:22:50.592Z,26.53
2019-03-31T08:25:19.421Z,28.00
2019-03-31T08:27:48.157Z,27.93
2019-03-31T08:30:17.073Z,27.90
2019-03-31T08:32:45.566Z,29.03
2019-03-31T08:35:14.391Z,28.13
2019-03-31T08:37:42.940Z,28.37
2019-03-31T08:40:12.901Z,29.47
2019-03-31T08:42:41.602Z,30.27
2019-03-31T08:45:11.127Z,30.50
2019-03-31T08:47:40.679Z,29.63
2019-03-31T08:50:10.109Z,29.30
2019-03-31T08:52:38.936Z,28.43
2019-03-31T08:55:08.268Z,27.53
2019-03-31T08:57:36.824Z,27.27
2019-03-31T09:00:11.611Z,27.53
2019-03-31T09:02:40.238Z,28.00
2019-03-31T09:05:09.775Z,28.10
2019-03-31T09:07:41.678Z,28.07
2019-03-31T09:10:10.174Z,27.90
2019-03-31T09:12:39.030Z,28.70
2019-03-31T09:15:09.124Z,28.40
2019-03-31T09:17:37.879Z,28.47
2019-03-31T09:20:07.099Z,29.03
2019-03-31T09:22:35.954Z,28.60
2019-03-31T09:25:05.584Z,29.37
2019-03-31T09:27:34.172Z,29.23
2019-03-31T09:30:02.995Z,30.30
2019-03-31T09:32:31.595Z,28.33
2019-03-31T09:35:00.361Z,28.90
2019-03-31T09:37:29.126Z,29.53
2019-03-31T09:39:57.688Z,30.00
2019-03-31T09:42:26.203Z,29.07
2019-03-31T09:44:54.762Z,29.97
2019-03-31T09:47:23.350Z,30.63
2019-03-31T09:49:51.829Z,28.90
2019-03-31T09:52:20.390Z,29.10
2019-03-31T09:54:48.955Z,29.37
2019-03-31T09:57:17.566Z,29.30
2019-03-31T09:59:46.057Z,30.13
2019-03-31T10:02:14.716Z,31.57
2019-03-31T10:04:43.264Z,29.37
2019-03-31T10:07:11.915Z,29.13
2019-03-31T10:09:40.742Z,28.93
2019-03-31T10:12:09.359Z,27.27
2019-03-31T10:14:37.915Z,28.17
2019-03-31T10:17:06.496Z,27.13
2019-03-31T10:19:35.069Z,28.37
2019-03-31T10:22:03.646Z,28.13
2019-03-31T10:24:32.223Z,27.80
2019-03-31T10:27:00.854Z,27.90
2019-03-31T10:29:29.407Z,28.40
2019-03-31T10:31:57.983Z,28.70
2019-03-31T10:34:26.641Z,27.77
2019-03-31T10:36:55.199Z,30.27
2019-03-31T10:39:23.705Z,31.33
2019-03-31T10:41:52.210Z,30.93
2019-03-31T10:44:20.733Z,31.07
2019-03-31T10:46:49.278Z,30.73
2019-03-31T10:49:17.867Z,31.60
2019-03-31T10:51:46.349Z,31.60
2019-03-31T10:54:15.010Z,32.83
2019-03-31T10:56:43.642Z,34.20
2019-03-31T10:59:12.211Z,32.90
2019-03-31T11:01:40.919Z,33.80
2019-03-31T11:04:09.567Z,35.13
2019-03-31T11:06:38.160Z,34.07
2019-03-31T11:09:07.158Z,34.87
2019-03-31T11:11:35.762Z,35.43
2019-03-31T11:14:04.390Z,34.67
2019-03-31T11:16:32.989Z,34.73
2019-03-31T11:19:01.536Z,35.37
2019-03-31T11:21:34.674Z,34.27
2019-03-31T11:24:03.241Z,33.97
2019-03-31T11:26:31.795Z,34.53
2019-03-31T11:29:00.316Z,34.33
2019-03-31T11:31:28.893Z,34.70
2019-03-31T11:33:57.482Z,33.93
2019-03-31T11:36:25.970Z,34.17
2019-03-31T11:38:54.566Z,34.43
2019-03-31T11:41:23.059Z,32.20
2019-03-31T11:43:51.616Z,33.03
2019-03-31T11:46:20.220Z,33.73
2019-03-31T11:48:48.770Z,34.90
2019-03-31T11:51:17.362Z,33.40
2019-03-31T11:53:45.938Z,33.20
2019-03-31T11:56:14.530Z,33.27
2019-03-31T11:58:43.086Z,34.47
2019-03-31T12:01:11.684Z,34.93
2019-03-31T12:03:40.238Z,35.73
2019-03-31T12:06:11.282Z,32.27
2019-03-31T12:08:39.094Z,32.23
2019-03-31T12:11:07.602Z,32.00
2019-03-31T12:13:36.086Z,32.23
2019-03-31T12:16:04.682Z,30.70
2019-03-31T12:18:33.246Z,31.47
2019-03-31T12:21:01.914Z,30.23
2019-03-31T12:23:30.480Z,32.10
2019-03-31T12:25:59.062Z,31.17
2019-03-31T12:28:27.548Z,30.77
2019-03-31T12:30:56.131Z,28.97
2019-03-31T12:33:24.620Z,29.70
2019-03-31T12:35:53.207Z,29.07
2019-03-31T12:38:21.767Z,29.67
2019-03-31T12:40:50.432Z,28.70
2019-03-31T12:43:18.986Z,25.30
2019-03-31T12:45:47.504Z,23.03
2019-03-31T12:48:16.068Z,22.10
2019-03-31T12:50:44.662Z,19.63
2019-03-31T12:53:13.220Z,19.07
2019-03-31T12:55:41.808Z,18.60
2019-03-31T12:58:10.372Z,16.53
2019-03-31T13:00:39.026Z,15.33
2019-03-31T13:03:07.586Z,14.70
2019-03-31T13:05:36.247Z,13.50
2019-03-31T13:08:04.870Z,14.27
2019-03-31T13:10:33.364Z,14.87
2019-03-31T13:13:01.966Z,15.07
2019-03-31T13:15:30.450Z,15.90
2019-03-31T13:17:59.108Z,16.53
2019-03-31T13:20:27.675Z,15.93
2019-03-31T13:22:56.327Z,16.70
2019-03-31T13:25:24.961Z,16.03
2019-03-31T13:27:53.542Z,17.63
2019-03-31T13:30:22.201Z,18.10
2019-03-31T13:32:50.985Z,18.93
2019-03-31T13:35:19.686Z,18.33
2019-03-31T13:37:48.270Z,18.33
2019-03-31T13:40:16.838Z,18.53
2019-03-31T13:42:45.350Z,18.40
2019-03-31T13:45:14.406Z,18.10
2019-03-31T13:47:42.991Z,19.17
2019-03-31T13:50:12.108Z,19.80
2019-03-31T13:52:40.624Z,19.93
2019-03-31T13:55:09.115Z,19.73
2019-03-31T13:57:39.811Z,20.53
2019-03-31T14:00:10.694Z,18.90
2019-03-31T14:02:40.199Z,19.93
2019-03-31T14:05:09.084Z,18.83
2019-03-31T14:07:37.597Z,19.03
2019-03-31T14:10:07.103Z,19.57
2019-03-31T14:12:35.692Z,20.50
2019-03-31T14:15:19.224Z,20.33
2019-03-31T14:17:38.522Z,20.00
2019-03-31T14:20:07.923Z,21.43
2019-03-31T14:22:36.519Z,19.73
2019-03-31T14:25:06.317Z,20.20
2019-03-31T14:27:34.927Z,19.73
2019-03-31T14:30:05.489Z,20.00
2019-03-31T14:32:34.187Z,19.57
2019-03-31T14:35:02.841Z,18.83
2019-03-31T14:37:31.399Z,18.20
2019-03-31T14:39:59.995Z,17.63
2019-03-31T14:42:28.554Z,17.63
2019-03-31T14:44:57.278Z,17.83
2019-03-31T14:47:25.904Z,17.93
2019-03-31T14:49:54.492Z,19.37
2019-03-31T14:52:27.699Z,19.03
2019-03-31T14:54:55.740Z,29.03
2019-03-31T14:57:23.506Z,24.47
2019-03-31T14:59:51.995Z,19.43
2019-03-31T15:02:20.597Z,19.60
2019-03-31T15:04:49.167Z,19.17
2019-03-31T15:07:17.726Z,19.53
2019-03-31T15:09:46.250Z,19.13
2019-03-31T15:12:14.821Z,19.87
2019-03-31T15:14:43.413Z,19.33
2019-03-31T15:17:11.970Z,22.00
2019-03-31T15:19:40.573Z,19.33
2019-03-31T15:22:09.133Z,24.27
2019-03-31T15:24:37.725Z,18.70
2019-03-31T15:27:06.291Z,18.23
2019-03-31T15:29:34.885Z,17.27
2019-03-31T15:32:03.518Z,18.40
2019-03-31T15:34:32.042Z,17.50
2019-03-31T15:37:00.606Z,17.17
2019-03-31T15:39:29.205Z,18.00
2019-03-31T15:41:57.759Z,17.73
2019-03-31T15:44:26.385Z,16.80
2019-03-31T15:46:54.973Z,16.03
2019-03-31T15:49:23.549Z,16.67
2019-03-31T15:51:52.149Z,14.93
2019-03-31T15:54:20.699Z,16.43
2019-03-31T15:56:49.355Z,15.53
2019-03-31T15:59:17.958Z,13.23
2019-03-31T16:01:46.520Z,11.97
2019-03-31T16:04:15.121Z,11.97
2019-03-31T16:06:43.689Z,11.93
2019-03-31T16:09:23.367Z,11.40
2019-03-31T16:11:53.084Z,11.57
2019-03-31T16:14:12.971Z,10.57
2019-03-31T16:16:41.564Z,9.97
2019-03-31T16:19:10.127Z,9.50
2019-03-31T16:21:38.722Z,9.07
2019-03-31T16:24:07.356Z,9.03
2019-03-31T16:26:36.015Z,8.77
2019-03-31T16:29:04.646Z,8.73
2019-03-31T16:31:33.235Z,8.63
2019-03-31T16:34:01.789Z,8.87
2019-03-31T16:36:30.390Z,8.30
2019-03-31T16:38:58.949Z,8.20
2019-03-31T16:41:27.833Z,7.83
2019-03-31T16:43:56.462Z,23.27
2019-03-31T16:46:24.988Z,13.20
2019-03-31T16:48:53.477Z,9.37
2019-03-31T16:51:22.061Z,7.33
2019-03-31T16:53:50.632Z,7.67
2019-03-31T16:56:19.316Z,7.00
2019-03-31T16:58:47.863Z,6.90
2019-03-31T17:01:16.446Z,6.60
2019-03-31T17:03:45.013Z,6.43
2019-03-31T17:06:13.731Z,5.90
2019-03-31T17:08:42.317Z,6.17
2019-03-31T17:11:10.877Z,5.53
2019-03-31T17:13:39.389Z,6.20
2019-03-31T17:16:07.946Z,6.40
2019-03-31T17:18:36.470Z,6.13
2019-03-31T17:21:05.195Z,6.50
2019-03-31T17:23:33.834Z,6.70
2019-03-31T17:26:02.389Z,9.87
2019-03-31T17:28:30.913Z,10.63
2019-03-31T17:30:59.473Z,11.53
2019-03-31T17:33:30.335Z,12.67
2019-03-31T17:35:58.253Z,13.10
2019-03-31T17:38:26.786Z,20.37
2019-03-31T17:40:55.344Z,15.10
2019-03-31T17:43:23.958Z,18.30
2019-03-31T17:45:52.446Z,16.77
2019-03-31T17:48:21.045Z,10.73
2019-03-31T17:50:49.599Z,6.27
2019-03-31T17:53:18.241Z,5.40
2019-03-31T17:55:46.803Z,5.30
2019-03-31T17:58:15.391Z,5.30
2019-03-31T18:00:44.002Z,4.67
2019-03-31T18:03:15.427Z,5.07
2019-03-31T18:05:42.745Z,5.33
2019-03-31T18:08:11.257Z,5.53
2019-03-31T18:10:39.834Z,4.80
2019-03-31T18:13:08.409Z,4.87
2019-03-31T18:15:37.064Z,4.40
2019-03-31T18:18:05.657Z,4.17
2019-03-31T18:20:34.214Z,4.53
2019-03-31T18:23:02.865Z,4.67
2019-03-31T18:25:31.350Z,5.00
2019-03-31T18:27:59.989Z,4.70
2019-03-31T18:30:28.581Z,4.93
2019-03-31T18:32:57.195Z,5.47
2019-03-31T18:35:25.785Z,5.23
2019-03-31T18:37:54.474Z,5.57
2019-03-31T18:40:34.343Z,5.80
2019-03-31T18:42:53.277Z,6.17
2019-03-31T18:45:21.877Z,5.73
2019-03-31T18:47:50.445Z,5.77
2019-03-31T18:50:19.054Z,5.37
2019-03-31T18:52:47.997Z,5.40
2019-03-31T18:55:18.166Z,5.73
2019-03-31T18:57:48.520Z,5.90
2019-03-31T19:00:27.855Z,6.10
2019-03-31T19:03:00.831Z,5.63
2019-03-31T19:05:47.411Z,5.70
2019-03-31T19:08:20.361Z,5.13
2019-03-31T19:11:06.593Z,5.77
2019-03-31T19:13:36.861Z,5.13
2019-03-31T19:16:25.087Z,5.23
2019-03-31T19:19:01.027Z,5.47
2019-03-31T19:21:46.613Z,6.10
2019-03-31T19:24:25.651Z,6.20
2019-03-31T19:27:10.979Z,6.40
2019-03-31T19:29:44.230Z,6.53
2019-03-31T19:32:14.448Z,6.57
2019-03-31T19:34:44.577Z,5.70
2019-03-31T19:37:30.849Z,5.97
2019-03-31T19:40:12.947Z,6.03
2019-03-31T19:42:54.939Z,5.70
2019-03-31T19:45:25.140Z,5.93
2019-03-31T19:47:55.374Z,5.93
2019-03-31T19:50:31.289Z,5.70
2019-03-31T19:53:01.513Z,5.87
2019-03-31T19:55:34.709Z,5.60
2019-03-31T19:58:07.958Z,6.50
2019-03-31T20:00:47.376Z,7.17
2019-03-31T20:03:29.829Z,6.17
2019-03-31T20:06:00.027Z,5.93
2019-03-31T20:08:39.407Z,6.17
2019-03-31T20:11:27.899Z,6.43
2019-03-31T20:13:58.117Z,5.80
2019-03-31T20:16:28.316Z,6.00
2019-03-31T20:18:58.541Z,5.87
2019-03-31T20:21:32.558Z,6.00
2019-03-31T20:24:17.917Z,5.80
2019-03-31T20:26:51.021Z,6.00
2019-03-31T20:29:24.141Z,6.17
2019-03-31T20:32:09.684Z,5.90
2019-03-31T20:34:45.341Z,5.90
2019-03-31T20:37:31.919Z,5.87
2019-03-31T20:40:02.145Z,5.83
2019-03-31T20:42:48.669Z,5.70
2019-03-31T20:45:17.262Z,6.47
2019-03-31T20:47:45.819Z,6.23
2019-03-31T20:50:14.517Z,6.37
2019-03-31T20:52:43.105Z,6.10
2019-03-31T20:55:16.442Z,6.13
2019-03-31T20:57:41.905Z,5.87
2019-03-31T21:00:10.869Z,6.40
2019-03-31T21:02:39.398Z,6.00
2019-03-31T21:05:07.955Z,6.33
2019-03-31T21:07:36.644Z,6.03
2019-03-31T21:10:06.728Z,6.57
2019-03-31T21:12:35.247Z,5.53
2019-03-31T21:15:05.169Z,6.10
2019-03-31T21:17:33.717Z,5.53
2019-03-31T21:20:02.310Z,5.87
2019-03-31T21:22:30.857Z,5.53
2019-03-31T21:24:59.441Z,5.60
2019-03-31T21:27:27.915Z,5.43
2019-03-31T21:29:56.587Z,5.30
2019-03-31T21:32:25.147Z,5.50
2019-03-31T21:34:53.729Z,5.67
2019-03-31T21:37:22.203Z,5.63
2019-03-31T21:39:50.787Z,5.97
2019-03-31T21:42:19.352Z,5.57
2019-03-31T21:44:47.927Z,6.00
2019-03-31T21:47:16.482Z,6.20
2019-03-31T21:49:45.065Z,5.60
2019-03-31T21:52:13.537Z,5.87
2019-03-31T21:54:42.044Z,5.43
2019-03-31T21:57:10.627Z,5.50
2019-03-31T21:59:39.209Z,5.10
2019-03-31T22:02:08.004Z,5.07
2019-03-31T22:04:36.613Z,4.70
2019-03-31T22:07:05.509Z,5.20
2019-03-31T22:09:34.093Z,4.77
2019-03-31T22:12:02.641Z,4.30
2019-03-31T22:14:31.233Z,4.60
2019-03-31T22:16:59.788Z,4.07
2019-03-31T22:19:28.421Z,4.23
2019-03-31T22:21:56.965Z,4.13
2019-03-31T22:24:25.505Z,4.10
2019-03-31T22:26:54.065Z,3.93
2019-03-31T22:29:22.533Z,4.03
2019-03-31T22:31:51.045Z,4.00
2019-03-31T22:34:19.602Z,3.60
2019-03-31T22:36:48.177Z,3.60
2019-03-31T22:39:16.663Z,3.93
2019-03-31T22:41:45.245Z,3.77
2019-03-31T22:44:13.788Z,3.67
2019-03-31T22:46:53.759Z,3.70
2019-03-31T22:49:12.502Z,3.60
2019-03-31T22:51:41.141Z,3.43
2019-03-31T22:54:09.617Z,3.40
2019-03-31T22:56:38.124Z,3.10
2019-03-31T22:59:09.646Z,3.60
2019-03-31T23:01:36.901Z,3.33
2019-03-31T23:04:05.522Z,3.73
2019-03-31T23:06:34.108Z,3.13
2019-03-31T23:09:02.589Z,3.40
2019-03-31T23:11:31.171Z,3.00
2019-03-31T23:13:59.744Z,2.93
2019-03-31T23:16:28.317Z,3.00
2019-03-31T23:18:56.865Z,3.30
2019-03-31T23:21:25.443Z,3.00
2019-03-31T23:23:53.997Z,3.27
2019-03-31T23:26:22.515Z,2.80
2019-03-31T23:28:51.071Z,2.90
2019-03-31T23:31:19.653Z,3.30
2019-03-31T23:33:48.202Z,2.80
2019-03-31T23:36:16.781Z,3.20
2019-03-31T23:38:45.336Z,3.10
2019-03-31T23:41:14.012Z,3.60
2019-03-31T23:44:01.863Z,3.43
2019-03-31T23:46:30.457Z,2.80
2019-03-31T23:48:59.000Z,3.10
2019-03-31T23:51:27.665Z,3.30
2019-03-31T23:53:56.225Z,3.07
2019-03-31T23:56:24.815Z,2.93
2019-03-31T23:58:53.371Z,3.27
